Cleveland Hopkins International Airport
KCLE : now visible

Airfield :











YOU CAN JOIN US ON...

 
LOGIN :

Register | Disclaimer

   EN    FR    IT 

 









Legend :    VFR   Marginal VFR   IFR   Intensive IFR   Very Intensive IFR
Visi :
Ceiling :
>= 8 km
>= 3000ft
5 to 8 km
1000 to 3000 ft
1500m to 5 km
500 to 1000 ft
800 to 1500m
200 to 500 ft
< 800m
< 200 ft
Symbols :   Thunderstorms  Fog  Heavy snow  Heavy precipitations  Wind > 20 kt






- Airport Elevation : 791 ft
- IATA code : CLE


KCLE - Cleveland Hopkins International

CURRENT METAR :
  • 280851Z 23009KT 10SM OVC050 M07/M11 A2993 RMK AO2 SLP147 60000 T10671106 58009

EXPIRED METARs :
  • 280751Z 23008KT 10SM FEW035 BKN050 M07/M11 A2995 RMK AO2 SNE23 SLP151 P0000 T10721106
  • 280651Z 23011KT 9SM -SN BKN037 M06/M10 A2996 RMK AO2 SLP156 P0000 T10611100

TAF KCLE
Valid from the 28 at 09:00 until the 29 at 12:00 UTC


280900Z 2809/2912 25010KT P6SM BKN050
FM281300 26012KT 5SM -SHSN BKN025
FM281600 26014G25KT P6SM OVC025
FM281900 26016G28KT P6SM VCSH OVC035
FM290000 28013G26KT 5SM -SHSN OVC035
FM290900 29012G24KT P6SM OVC025



MET'MAP, your aeronautical weather chart ! - Copyright ORBIFLY December 2007 - Disclaimer

ORBIFLY MET'MAP TEAM :

Programming & Development : Alexandra Zaïnal
Concept & original design : Baudouin d'Aumeries
Assistance for programming : Marc-Olivier Méhu
Technical & hardware support : Manuel Goepfert

Contact : metmap@orbifly.com




SOURCES & CREDITS :

   NOAA       Earth
Advisory